sensor_id;sensor_type;location;lat;lon;timestamp;pressure;altitude;pressure_sealevel;temperature;humidity
55466;BME280;41329;41.594;23.810;2023-08-06T00:01:47;93993.00;;;26.68;50.10
55466;BME280;41329;41.594;23.810;2023-08-06T00:04:13;93990.41;;;26.64;48.89
55466;BME280;41329;41.594;23.810;2023-08-06T00:06:38;93984.47;;;26.62;48.83
55466;BME280;41329;41.594;23.810;2023-08-06T00:09:03;93986.97;;;26.55;48.13
55466;BME280;41329;41.594;23.810;2023-08-06T00:11:29;93974.28;;;26.50;48.36
55466;BME280;41329;41.594;23.810;2023-08-06T00:13:54;93969.66;;;26.47;48.89
55466;BME280;41329;41.594;23.810;2023-08-06T00:16:20;93957.22;;;26.39;48.72
55466;BME280;41329;41.594;23.810;2023-08-06T00:18:45;93957.47;;;26.36;48.34
55466;BME280;41329;41.594;23.810;2023-08-06T00:21:10;93969.53;;;26.31;48.83
55466;BME280;41329;41.594;23.810;2023-08-06T00:23:37;93971.31;;;26.28;48.72
55466;BME280;41329;41.594;23.810;2023-08-06T00:26:03;93959.94;;;26.23;49.11
55466;BME280;41329;41.594;23.810;2023-08-06T00:28:28;93967.13;;;25.87;50.50
55466;BME280;41329;41.594;23.810;2023-08-06T00:30:54;93977.59;;;25.76;51.35
55466;BME280;41329;41.594;23.810;2023-08-06T00:33:21;93977.44;;;25.59;52.23
55466;BME280;41329;41.594;23.810;2023-08-06T00:35:46;93979.06;;;25.66;52.05
55466;BME280;41329;41.594;23.810;2023-08-06T00:38:12;93975.34;;;25.54;51.22
55466;BME280;41329;41.594;23.810;2023-08-06T00:40:37;93918.84;;;25.20;51.47
55466;BME280;41329;41.594;23.810;2023-08-06T00:43:03;93973.50;;;25.51;51.88
55466;BME280;41329;41.594;23.810;2023-08-06T00:45:29;93954.97;;;25.50;52.16
55466;BME280;41329;41.594;23.810;2023-08-06T00:47:55;93959.34;;;25.51;52.45
55466;BME280;41329;41.594;23.810;2023-08-06T00:50:21;93963.22;;;25.54;52.81
55466;BME280;41329;41.594;23.810;2023-08-06T00:52:48;93953.69;;;25.51;53.06
55466;BME280;41329;41.594;23.810;2023-08-06T00:55:15;93952.91;;;25.51;53.97
55466;BME280;41329;41.594;23.810;2023-08-06T00:57:41;93958.84;;;25.53;53.54
55466;BME280;41329;41.594;23.810;2023-08-06T01:00:07;93942.53;;;25.42;53.12
55466;BME280;41329;41.594;23.810;2023-08-06T01:02:32;93949.63;;;25.32;53.97
55466;BME280;41329;41.594;23.810;2023-08-06T01:04:58;93965.84;;;25.32;54.10
55466;BME280;41329;41.594;23.810;2023-08-06T01:07:40;93952.13;;;25.05;54.43
55466;BME280;41329;41.594;23.810;2023-08-06T01:15:47;93953.25;;;25.13;54.77
55466;BME280;41329;41.594;23.810;2023-08-06T01:18:14;93936.66;;;25.00;55.15
55466;BME280;41329;41.594;23.810;2023-08-06T01:20:40;93948.97;;;24.97;55.13
55466;BME280;41329;41.594;23.810;2023-08-06T01:23:06;93938.94;;;24.96;54.96
55466;BME280;41329;41.594;23.810;2023-08-06T01:25:43;93953.72;;;25.06;54.75
55466;BME280;41329;41.594;23.810;2023-08-06T01:28:19;93940.47;;;24.97;54.64
55466;BME280;41329;41.594;23.810;2023-08-06T01:30:49;93950.66;;;25.09;54.37
55466;BME280;41329;41.594;23.810;2023-08-06T01:33:19;93952.69;;;25.09;54.21
55466;BME280;41329;41.594;23.810;2023-08-06T01:35:48;93934.25;;;24.93;54.61
55466;BME280;41329;41.594;23.810;2023-08-06T01:38:15;93947.03;;;25.09;54.27
55466;BME280;41329;41.594;23.810;2023-08-06T01:40:40;93961.97;;;25.09;54.45
55466;BME280;41329;41.594;23.810;2023-08-06T01:43:06;93968.22;;;24.93;54.91
55466;BME280;41329;41.594;23.810;2023-08-06T01:45:31;93959.53;;;24.77;55.20
55466;BME280;41329;41.594;23.810;2023-08-06T01:47:56;93934.50;;;24.70;55.45
55466;BME280;41329;41.594;23.810;2023-08-06T01:50:22;93951.81;;;24.77;55.84
55466;BME280;41329;41.594;23.810;2023-08-06T01:52:47;93945.03;;;24.69;56.11
55466;BME280;41329;41.594;23.810;2023-08-06T01:55:13;93943.97;;;24.67;56.49
55466;BME280;41329;41.594;23.810;2023-08-06T01:57:38;93957.13;;;24.70;56.67
55466;BME280;41329;41.594;23.810;2023-08-06T02:00:04;93948.41;;;24.73;56.66
55466;BME280;41329;41.594;23.810;2023-08-06T02:02:29;93949.94;;;24.69;56.54
55466;BME280;41329;41.594;23.810;2023-08-06T02:04:55;93945.53;;;24.68;56.70
55466;BME280;41329;41.594;23.810;2023-08-06T02:07:20;93923.72;;;24.54;56.68
55466;BME280;41329;41.594;23.810;2023-08-06T02:09:46;93937.25;;;24.64;56.94
55466;BME280;41329;41.594;23.810;2023-08-06T02:12:11;93938.53;;;24.63;56.16
55466;BME280;41329;41.594;23.810;2023-08-06T02:14:36;93931.72;;;24.55;56.31
55466;BME280;41329;41.594;23.810;2023-08-06T02:17:02;93931.03;;;24.60;56.55
55466;BME280;41329;41.594;23.810;2023-08-06T02:19:27;93935.97;;;24.65;56.95
55466;BME280;41329;41.594;23.810;2023-08-06T02:21:52;93936.28;;;24.67;56.99
55466;BME280;41329;41.594;23.810;2023-08-06T02:24:18;93916.22;;;24.51;56.07
55466;BME280;41329;41.594;23.810;2023-08-06T02:26:43;93918.00;;;24.48;55.60
55466;BME280;41329;41.594;23.810;2023-08-06T02:29:09;93931.72;;;24.55;55.78
55466;BME280;41329;41.594;23.810;2023-08-06T02:31:34;93916.94;;;24.46;55.73
55466;BME280;41329;41.594;23.810;2023-08-06T02:33:59;93930.59;;;24.47;55.78
55466;BME280;41329;41.594;23.810;2023-08-06T02:36:25;93939.84;;;24.48;55.82
55466;BME280;41329;41.594;23.810;2023-08-06T02:38:54;93942.03;;;24.38;56.31
55466;BME280;41329;41.594;23.810;2023-08-06T02:41:19;93939.22;;;24.38;56.72
55466;BME280;41329;41.594;23.810;2023-08-06T02:43:45;93933.34;;;24.42;57.52
55466;BME280;41329;41.594;23.810;2023-08-06T02:46:10;93919.34;;;24.33;57.30
55466;BME280;41329;41.594;23.810;2023-08-06T02:48:35;93940.75;;;24.39;57.71
55466;BME280;41329;41.594;23.810;2023-08-06T02:51:01;93933.44;;;24.13;59.55
55466;BME280;41329;41.594;23.810;2023-08-06T02:53:26;93958.38;;;24.14;60.76
55466;BME280;41329;41.594;23.810;2023-08-06T02:55:52;93965.03;;;24.11;60.22
55466;BME280;41329;41.594;23.810;2023-08-06T02:58:17;93934.38;;;24.04;60.78
55466;BME280;41329;41.594;23.810;2023-08-06T03:00:58;93957.53;;;24.08;61.46
55466;BME280;41329;41.594;23.810;2023-08-06T03:03:24;93964.28;;;23.82;62.35
55466;BME280;41329;41.594;23.810;2023-08-06T03:05:53;93968.97;;;23.85;62.30
55466;BME280;41329;41.594;23.810;2023-08-06T03:08:18;93964.66;;;23.89;62.16
55466;BME280;41329;41.594;23.810;2023-08-06T03:10:50;93970.63;;;23.91;62.28
55466;BME280;41329;41.594;23.810;2023-08-06T03:13:19;93962.25;;;23.97;62.26
55466;BME280;41329;41.594;23.810;2023-08-06T03:15:58;93952.19;;;23.96;62.71
55466;BME280;41329;41.594;23.810;2023-08-06T03:18:24;93974.31;;;23.97;62.87
55466;BME280;41329;41.594;23.810;2023-08-06T03:20:51;93976.88;;;23.95;62.70
55466;BME280;41329;41.594;23.810;2023-08-06T03:23:17;93970.44;;;23.95;62.75
55466;BME280;41329;41.594;23.810;2023-08-06T03:25:43;93946.56;;;23.81;62.77
55466;BME280;41329;41.594;23.810;2023-08-06T03:28:08;93967.81;;;23.91;63.43
55466;BME280;41329;41.594;23.810;2023-08-06T03:30:34;93945.78;;;23.81;63.41
55466;BME280;41329;41.594;23.810;2023-08-06T03:32:59;93962.91;;;23.92;63.32
55466;BME280;41329;41.594;23.810;2023-08-06T03:35:24;93968.41;;;23.95;63.47
55466;BME280;41329;41.594;23.810;2023-08-06T03:37:50;93961.16;;;23.94;63.44
55466;BME280;41329;41.594;23.810;2023-08-06T03:40:15;93960.69;;;23.96;63.51
55466;BME280;41329;41.594;23.810;2023-08-06T03:42:41;93953.34;;;23.89;63.95
55466;BME280;41329;41.594;23.810;2023-08-06T03:45:09;93961.06;;;23.89;64.11
55466;BME280;41329;41.594;23.810;2023-08-06T03:47:35;93957.47;;;23.88;64.76
55466;BME280;41329;41.594;23.810;2023-08-06T03:50:00;93933.13;;;23.76;64.33
55466;BME280;41329;41.594;23.810;2023-08-06T03:52:26;93966.31;;;23.96;64.74
55466;BME280;41329;41.594;23.810;2023-08-06T03:54:51;93966.53;;;23.92;64.51
55466;BME280;41329;41.594;23.810;2023-08-06T03:57:17;93950.94;;;23.82;65.05
55466;BME280;41329;41.594;23.810;2023-08-06T03:59:42;93951.81;;;23.88;65.12
55466;BME280;41329;41.594;23.810;2023-08-06T04:02:07;93950.16;;;23.82;65.32
55466;BME280;41329;41.594;23.810;2023-08-06T04:04:33;93957.47;;;23.88;64.55
55466;BME280;41329;41.594;23.810;2023-08-06T04:06:58;93945.13;;;23.71;63.62
55466;BME280;41329;41.594;23.810;2023-08-06T04:09:23;93953.69;;;23.62;63.82
55466;BME280;41329;41.594;23.810;2023-08-06T04:11:49;93949.50;;;23.58;64.43
55466;BME280;41329;41.594;23.810;2023-08-06T04:14:14;93983.00;;;23.79;64.77
55466;BME280;41329;41.594;23.810;2023-08-06T04:16:40;93979.19;;;23.82;64.82
55466;BME280;41329;41.594;23.810;2023-08-06T04:19:05;93972.75;;;23.82;64.80
55466;BME280;41329;41.594;23.810;2023-08-06T04:21:30;93983.28;;;23.81;64.29
55466;BME280;41329;41.594;23.810;2023-08-06T04:23:56;93991.16;;;23.77;64.24
55466;BME280;41329;41.594;23.810;2023-08-06T04:26:22;93980.97;;;23.65;63.77
55466;BME280;41329;41.594;23.810;2023-08-06T04:28:47;93981.84;;;23.71;64.33
55466;BME280;41329;41.594;23.810;2023-08-06T04:31:14;93978.44;;;23.67;65.03
55466;BME280;41329;41.594;23.810;2023-08-06T04:33:39;93973.47;;;23.62;65.57
55466;BME280;41329;41.594;23.810;2023-08-06T04:36:05;93963.94;;;23.60;65.69
55466;BME280;41329;41.594;23.810;2023-08-06T04:38:30;93973.75;;;23.64;65.09
55466;BME280;41329;41.594;23.810;2023-08-06T04:40:55;93970.25;;;23.69;65.23
55466;BME280;41329;41.594;23.810;2023-08-06T04:43:21;93963.50;;;23.67;64.87
55466;BME280;41329;41.594;23.810;2023-08-06T04:45:50;93980.75;;;23.69;64.81
55466;BME280;41329;41.594;23.810;2023-08-06T04:48:16;93974.66;;;23.41;64.81
55466;BME280;41329;41.594;23.810;2023-08-06T04:50:46;93963.94;;;23.31;64.99
55466;BME280;41329;41.594;23.810;2023-08-06T04:53:11;93965.69;;;23.28;65.17
55466;BME280;41329;41.594;23.810;2023-08-06T04:55:37;93972.59;;;23.27;65.42
55466;BME280;41329;41.594;23.810;2023-08-06T04:58:03;93970.75;;;23.24;65.11
55466;BME280;41329;41.594;23.810;2023-08-06T05:00:28;93953.09;;;23.15;65.35
55466;BME280;41329;41.594;23.810;2023-08-06T05:02:53;93965.97;;;23.30;65.75
55466;BME280;41329;41.594;23.810;2023-08-06T05:05:19;93968.09;;;23.35;66.29
55466;BME280;41329;41.594;23.810;2023-08-06T05:07:47;93945.63;;;23.26;66.84
55466;BME280;41329;41.594;23.810;2023-08-06T05:10:13;93949.63;;;23.34;66.95
55466;BME280;41329;41.594;23.810;2023-08-06T05:12:40;93965.78;;;23.48;67.02
55466;BME280;41329;41.594;23.810;2023-08-06T05:15:05;93971.63;;;23.59;66.95
55466;BME280;41329;41.594;23.810;2023-08-06T05:17:31;93961.22;;;23.65;66.07
55466;BME280;41329;41.594;23.810;2023-08-06T05:19:56;93968.19;;;23.70;64.97
55466;BME280;41329;41.594;23.810;2023-08-06T05:22:22;93950.31;;;23.58;65.18
55466;BME280;41329;41.594;23.810;2023-08-06T05:24:47;93963.72;;;23.63;65.88
55466;BME280;41329;41.594;23.810;2023-08-06T05:27:12;93955.75;;;23.62;65.87
55466;BME280;41329;41.594;23.810;2023-08-06T05:29:38;93959.75;;;23.55;65.99
55466;BME280;41329;41.594;23.810;2023-08-06T05:32:04;93958.97;;;23.69;66.25
55466;BME280;41329;41.594;23.810;2023-08-06T05:34:29;93955.72;;;23.76;66.37
55466;BME280;41329;41.594;23.810;2023-08-06T05:36:54;93946.38;;;23.85;66.36
55466;BME280;41329;41.594;23.810;2023-08-06T05:39:20;93944.44;;;23.91;65.50
55466;BME280;41329;41.594;23.810;2023-08-06T05:41:45;93947.44;;;24.02;65.10
55466;BME280;41329;41.594;23.810;2023-08-06T05:44:11;93936.63;;;23.86;63.91
55466;BME280;41329;41.594;23.810;2023-08-06T05:46:36;93929.03;;;23.77;63.40
55466;BME280;41329;41.594;23.810;2023-08-06T05:49:02;93923.78;;;23.85;63.61
55466;BME280;41329;41.594;23.810;2023-08-06T05:51:27;93934.28;;;23.84;63.90
55466;BME280;41329;41.594;23.810;2023-08-06T05:53:53;93907.25;;;23.63;63.37
55466;BME280;41329;41.594;23.810;2023-08-06T05:56:19;93942.66;;;23.79;63.15
55466;BME280;41329;41.594;23.810;2023-08-06T05:58:44;93960.31;;;23.74;62.52
55466;BME280;41329;41.594;23.810;2023-08-06T06:01:11;93955.03;;;23.67;62.99
55466;BME280;41329;41.594;23.810;2023-08-06T06:03:37;93897.38;;;23.39;62.29
55466;BME280;41329;41.594;23.810;2023-08-06T06:06:02;93950.50;;;23.69;61.47
55466;BME280;41329;41.594;23.810;2023-08-06T06:08:27;93938.41;;;23.69;61.73
55466;BME280;41329;41.594;23.810;2023-08-06T06:10:53;93951.81;;;23.88;61.99
55466;BME280;41329;41.594;23.810;2023-08-06T06:13:18;93934.66;;;23.92;61.92
55466;BME280;41329;41.594;23.810;2023-08-06T06:15:44;93937.34;;;24.15;62.07
55466;BME280;41329;41.594;23.810;2023-08-06T06:18:09;93946.69;;;24.21;59.63
55466;BME280;41329;41.594;23.810;2023-08-06T06:20:34;93947.47;;;24.22;58.78
55466;BME280;41329;41.594;23.810;2023-08-06T06:23:00;93948.66;;;24.35;58.37
55466;BME280;41329;41.594;23.810;2023-08-06T06:25:25;93936.66;;;24.40;58.64
55466;BME280;41329;41.594;23.810;2023-08-06T06:27:50;93935.03;;;24.54;57.59
55466;BME280;41329;41.594;23.810;2023-08-06T06:30:17;93944.03;;;24.72;57.67
55466;BME280;41329;41.594;23.810;2023-08-06T06:32:42;93946.00;;;24.86;56.70
55466;BME280;41329;41.594;23.810;2023-08-06T06:35:08;93965.13;;;24.91;56.44
55466;BME280;41329;41.594;23.810;2023-08-06T06:37:34;93959.72;;;24.93;55.34
55466;BME280;41329;41.594;23.810;2023-08-06T06:39:59;93963.13;;;24.97;55.40
55466;BME280;41329;41.594;23.810;2023-08-06T06:42:24;93964.41;;;24.96;54.34
55466;BME280;41329;41.594;23.810;2023-08-06T06:44:50;93964.25;;;25.05;54.88
55466;BME280;41329;41.594;23.810;2023-08-06T06:47:15;93946.69;;;25.01;54.42
55466;BME280;41329;41.594;23.810;2023-08-06T06:49:40;93953.56;;;25.15;53.82
55466;BME280;41329;41.594;23.810;2023-08-06T06:52:06;93948.47;;;25.24;54.23
55466;BME280;41329;41.594;23.810;2023-08-06T06:54:31;93955.41;;;25.43;53.96
55466;BME280;41329;41.594;23.810;2023-08-06T06:56:57;93956.69;;;25.42;53.33
55466;BME280;41329;41.594;23.810;2023-08-06T06:59:22;93953.38;;;25.49;52.35
55466;BME280;41329;41.594;23.810;2023-08-06T07:01:48;93957.56;;;25.54;51.52
55466;BME280;41329;41.594;23.810;2023-08-06T07:04:13;93972.84;;;25.62;52.29
55466;BME280;41329;41.594;23.810;2023-08-06T07:06:38;93948.06;;;25.57;51.84
55466;BME280;41329;41.594;23.810;2023-08-06T07:09:04;93951.97;;;25.59;51.55
55466;BME280;41329;41.594;23.810;2023-08-06T07:11:29;93957.16;;;25.66;51.39
55466;BME280;41329;41.594;23.810;2023-08-06T07:13:58;93960.94;;;25.83;51.09
55466;BME280;41329;41.594;23.810;2023-08-06T07:16:24;93958.34;;;25.85;50.99
55466;BME280;41329;41.594;23.810;2023-08-06T07:18:51;93978.13;;;26.05;50.95
55466;BME280;41329;41.594;23.810;2023-08-06T07:21:18;93970.91;;;26.04;50.74
55466;BME280;41329;41.594;23.810;2023-08-06T07:23:43;93984.41;;;26.15;50.02
55466;BME280;41329;41.594;23.810;2023-08-06T07:26:09;93984.19;;;26.24;50.20
55466;BME280;41329;41.594;23.810;2023-08-06T07:28:34;93965.31;;;26.15;50.08
55466;BME280;41329;41.594;23.810;2023-08-06T07:31:00;93989.38;;;26.31;50.09
55466;BME280;41329;41.594;23.810;2023-08-06T07:33:25;93980.69;;;26.40;46.59
55466;BME280;41329;41.594;23.810;2023-08-06T07:35:51;93990.22;;;26.37;47.93
55466;BME280;41329;41.594;23.810;2023-08-06T07:38:16;93984.53;;;26.37;48.24
55466;BME280;41329;41.594;23.810;2023-08-06T07:40:41;93991.56;;;26.47;46.33
55466;BME280;41329;41.594;23.810;2023-08-06T07:43:07;93982.84;;;26.56;46.66
55466;BME280;41329;41.594;23.810;2023-08-06T07:45:36;93993.22;;;26.59;46.38
55466;BME280;41329;41.594;23.810;2023-08-06T07:48:03;93982.81;;;26.50;45.76
55466;BME280;41329;41.594;23.810;2023-08-06T07:50:28;93994.69;;;26.54;45.14
55466;BME280;41329;41.594;23.810;2023-08-06T07:52:54;93998.94;;;26.64;46.63
55466;BME280;41329;41.594;23.810;2023-08-06T07:55:19;93989.38;;;26.62;44.59
55466;BME280;41329;41.594;23.810;2023-08-06T07:57:44;93999.72;;;26.70;43.71
55466;BME280;41329;41.594;23.810;2023-08-06T08:00:10;94016.66;;;27.07;43.38
55466;BME280;41329;41.594;23.810;2023-08-06T08:02:36;94004.31;;;27.10;43.77
55466;BME280;41329;41.594;23.810;2023-08-06T08:05:01;94010.25;;;27.17;42.43
55466;BME280;41329;41.594;23.810;2023-08-06T08:07:26;94029.69;;;27.24;42.44
55466;BME280;41329;41.594;23.810;2023-08-06T08:09:54;94016.56;;;27.38;42.19
55466;BME280;41329;41.594;23.810;2023-08-06T08:12:19;94015.78;;;27.37;42.56
55466;BME280;41329;41.594;23.810;2023-08-06T08:14:45;93987.38;;;27.32;42.35
55466;BME280;41329;41.594;23.810;2023-08-06T08:17:11;94018.16;;;27.55;41.31
55466;BME280;41329;41.594;23.810;2023-08-06T08:19:37;94003.72;;;27.59;39.93
55466;BME280;41329;41.594;23.810;2023-08-06T08:22:02;94009.47;;;27.81;42.12
55466;BME280;41329;41.594;23.810;2023-08-06T08:24:28;94005.09;;;27.97;41.90
55466;BME280;41329;41.594;23.810;2023-08-06T08:26:55;94002.78;;;28.12;42.29
55466;BME280;41329;41.594;23.810;2023-08-06T08:29:21;94003.53;;;28.34;41.70
55466;BME280;41329;41.594;23.810;2023-08-06T08:31:48;94017.25;;;28.47;41.72
55466;BME280;41329;41.594;23.810;2023-08-06T08:34:17;94013.38;;;28.61;39.10
55466;BME280;41329;41.594;23.810;2023-08-06T08:36:43;93997.56;;;28.71;39.47
55466;BME280;41329;41.594;23.810;2023-08-06T08:39:12;93996.25;;;28.88;40.41
55466;BME280;41329;41.594;23.810;2023-08-06T08:41:37;94005.66;;;29.29;40.58
55466;BME280;41329;41.594;23.810;2023-08-06T08:44:09;94018.00;;;29.54;37.13
55466;BME280;41329;41.594;23.810;2023-08-06T08:46:38;94012.06;;;29.57;36.76
55466;BME280;41329;41.594;23.810;2023-08-06T08:49:05;94016.03;;;29.84;38.66
55466;BME280;41329;41.594;23.810;2023-08-06T08:51:33;94011.19;;;30.14;37.38
55466;BME280;41329;41.594;23.810;2023-08-06T08:54:02;93988.97;;;30.36;35.92
55466;BME280;41329;41.594;23.810;2023-08-06T08:56:28;93983.47;;;30.38;36.13
55466;BME280;41329;41.594;23.810;2023-08-06T08:58:54;93993.69;;;30.58;34.54
55466;BME280;41329;41.594;23.810;2023-08-06T09:01:21;93984.25;;;30.68;35.51
55466;BME280;41329;41.594;23.810;2023-08-06T09:03:47;93997.66;;;30.79;33.57
55466;BME280;41329;41.594;23.810;2023-08-06T09:06:13;93955.19;;;30.40;34.36
55466;BME280;41329;41.594;23.810;2023-08-06T09:08:46;94002.91;;;30.75;33.53
55466;BME280;41329;41.594;23.810;2023-08-06T09:11:12;93977.59;;;30.60;32.96
55466;BME280;41329;41.594;23.810;2023-08-06T09:13:41;93934.88;;;30.49;33.74
55466;BME280;41329;41.594;23.810;2023-08-06T09:16:09;93981.41;;;30.92;31.46
55466;BME280;41329;41.594;23.810;2023-08-06T09:18:34;93977.38;;;30.82;31.21
55466;BME280;41329;41.594;23.810;2023-08-06T09:21:03;93978.94;;;30.83;31.72
55466;BME280;41329;41.594;23.810;2023-08-06T09:23:30;93970.56;;;30.61;29.33
55466;BME280;41329;41.594;23.810;2023-08-06T09:25:56;93993.63;;;30.63;30.36
55466;BME280;41329;41.594;23.810;2023-08-06T09:28:22;94004.00;;;30.66;30.34
55466;BME280;41329;41.594;23.810;2023-08-06T09:30:49;93997.97;;;30.75;30.35
55466;BME280;41329;41.594;23.810;2023-08-06T09:33:19;93998.56;;;30.92;30.11
55466;BME280;41329;41.594;23.810;2023-08-06T09:35:46;93986.59;;;30.94;31.36
55466;BME280;41329;41.594;23.810;2023-08-06T09:38:12;93995.66;;;30.98;29.98
55466;BME280;41329;41.594;23.810;2023-08-06T09:40:38;93994.38;;;30.93;30.95
55466;BME280;41329;41.594;23.810;2023-08-06T09:43:04;94004.34;;;31.35;31.09
55466;BME280;41329;41.594;23.810;2023-08-06T09:45:34;94001.66;;;31.61;29.10
55466;BME280;41329;41.594;23.810;2023-08-06T09:48:03;94009.63;;;31.25;28.48
55466;BME280;41329;41.594;23.810;2023-08-06T09:50:33;94012.47;;;31.01;30.00
55466;BME280;41329;41.594;23.810;2023-08-06T09:53:01;93977.44;;;30.77;29.52
55466;BME280;41329;41.594;23.810;2023-08-06T09:55:27;94013.31;;;30.96;29.31
55466;BME280;41329;41.594;23.810;2023-08-06T09:57:53;93997.81;;;30.62;29.47
55466;BME280;41329;41.594;23.810;2023-08-06T10:00:19;93997.03;;;30.32;29.95
55466;BME280;41329;41.594;23.810;2023-08-06T10:02:48;94012.03;;;30.03;31.93
55466;BME280;41329;41.594;23.810;2023-08-06T10:05:15;93987.84;;;29.75;32.39
55466;BME280;41329;41.594;23.810;2023-08-06T10:07:42;94004.66;;;29.84;32.92
55466;BME280;41329;41.594;23.810;2023-08-06T10:10:09;94006.38;;;29.92;32.88
55466;BME280;41329;41.594;23.810;2023-08-06T10:12:39;94014.06;;;30.14;32.68
55466;BME280;41329;41.594;23.810;2023-08-06T10:15:08;94004.19;;;30.15;31.97
55466;BME280;41329;41.594;23.810;2023-08-06T10:17:36;94032.59;;;30.31;32.48
55466;BME280;41329;41.594;23.810;2023-08-06T10:20:07;94030.66;;;29.69;34.44
55466;BME280;41329;41.594;23.810;2023-08-06T10:22:33;94027.28;;;28.81;36.78
55466;BME280;41329;41.594;23.810;2023-08-06T10:25:01;94046.97;;;28.35;38.44
55466;BME280;41329;41.594;23.810;2023-08-06T10:30:24;94042.03;;;27.97;40.28
55466;BME280;41329;41.594;23.810;2023-08-06T10:32:58;94016.34;;;27.47;41.25
55466;BME280;41329;41.594;23.810;2023-08-06T10:35:44;94032.94;;;27.70;41.61
55466;BME280;41329;41.594;23.810;2023-08-06T10:38:15;94020.78;;;27.75;41.54
55466;BME280;41329;41.594;23.810;2023-08-06T10:40:48;94019.03;;;27.84;42.38
55466;BME280;41329;41.594;23.810;2023-08-06T10:43:27;94027.31;;;27.98;40.93
55466;BME280;41329;41.594;23.810;2023-08-06T10:45:52;94019.28;;;27.91;38.67
55466;BME280;41329;41.594;23.810;2023-08-06T10:48:47;94050.59;;;28.13;39.07
55466;BME280;41329;41.594;23.810;2023-08-06T10:51:14;94030.44;;;28.22;38.26
55466;BME280;41329;41.594;23.810;2023-08-06T10:53:46;94058.09;;;28.77;38.00
55466;BME280;41329;41.594;23.810;2023-08-06T10:56:16;94054.19;;;29.13;35.70
55466;BME280;41329;41.594;23.810;2023-08-06T10:58:42;94050.03;;;29.08;34.95
55466;BME280;41329;41.594;23.810;2023-08-06T11:01:09;94052.63;;;29.12;37.32
55466;BME280;41329;41.594;23.810;2023-08-06T11:03:35;94058.47;;;29.36;34.62
55466;BME280;41329;41.594;23.810;2023-08-06T11:06:01;94059.78;;;29.35;35.28
55466;BME280;41329;41.594;23.810;2023-08-06T11:08:29;94046.59;;;29.32;35.60
55466;BME280;41329;41.594;23.810;2023-08-06T11:10:55;94050.22;;;29.27;35.29
55466;BME280;41329;41.594;23.810;2023-08-06T11:13:21;94048.19;;;29.22;35.16
55466;BME280;41329;41.594;23.810;2023-08-06T11:15:47;94059.56;;;29.33;34.01
55466;BME280;41329;41.594;23.810;2023-08-06T11:18:15;94058.25;;;29.34;33.12
55466;BME280;41329;41.594;23.810;2023-08-06T11:20:40;94053.50;;;29.53;33.25
55466;BME280;41329;41.594;23.810;2023-08-06T11:23:10;94044.72;;;29.51;33.12
55466;BME280;41329;41.594;23.810;2023-08-06T11:25:44;94075.22;;;29.72;33.47
55466;BME280;41329;41.594;23.810;2023-08-06T11:28:10;94045.22;;;29.60;33.21
55466;BME280;41329;41.594;23.810;2023-08-06T11:30:35;94075.97;;;29.78;33.08
55466;BME280;41329;41.594;23.810;2023-08-06T11:33:02;94075.22;;;29.72;33.19
55466;BME280;41329;41.594;23.810;2023-08-06T11:35:28;94060.75;;;29.54;32.45
55466;BME280;41329;41.594;23.810;2023-08-06T11:37:53;94076.47;;;29.77;33.36
55466;BME280;41329;41.594;23.810;2023-08-06T11:40:20;94076.63;;;29.95;32.06
55466;BME280;41329;41.594;23.810;2023-08-06T11:42:46;94068.09;;;29.95;33.30
55466;BME280;41329;41.594;23.810;2023-08-06T11:45:12;94078.25;;;30.31;31.89
55466;BME280;41329;41.594;23.810;2023-08-06T11:47:39;94081.84;;;30.37;31.27
55466;BME280;41329;41.594;23.810;2023-08-06T11:50:06;94081.84;;;30.37;31.71
55466;BME280;41329;41.594;23.810;2023-08-06T11:52:31;94079.06;;;30.61;32.01
55466;BME280;41329;41.594;23.810;2023-08-06T11:55:04;94086.13;;;30.84;31.12
55466;BME280;41329;41.594;23.810;2023-08-06T11:57:35;94061.56;;;30.76;31.23
55466;BME280;41329;41.594;23.810;2023-08-06T12:00:03;94080.81;;;30.64;30.43
55466;BME280;41329;41.594;23.810;2023-08-06T12:02:33;94087.41;;;30.54;31.69
55466;BME280;41329;41.594;23.810;2023-08-06T12:07:38;94098.41;;;30.79;31.07
55466;BME280;41329;41.594;23.810;2023-08-06T12:10:04;94089.66;;;30.72;30.95
55466;BME280;41329;41.594;23.810;2023-08-06T12:12:30;94087.47;;;30.48;30.73
55466;BME280;41329;41.594;23.810;2023-08-06T12:14:56;94075.72;;;30.22;30.94
55466;BME280;41329;41.594;23.810;2023-08-06T12:17:25;94091.88;;;30.09;31.58
55466;BME280;41329;41.594;23.810;2023-08-06T12:19:50;94090.31;;;30.08;32.22
55466;BME280;41329;41.594;23.810;2023-08-06T12:22:16;94085.09;;;30.12;32.55
55466;BME280;41329;41.594;23.810;2023-08-06T12:24:43;94082.16;;;30.28;32.38
55466;BME280;41329;41.594;23.810;2023-08-06T12:27:09;94092.81;;;30.22;31.67
55466;BME280;41329;41.594;23.810;2023-08-06T12:29:34;94080.31;;;30.31;32.71
55466;BME280;41329;41.594;23.810;2023-08-06T12:32:00;94081.25;;;30.50;30.98
55466;BME280;41329;41.594;23.810;2023-08-06T12:34:25;94071.31;;;30.56;31.44
55466;BME280;41329;41.594;23.810;2023-08-06T12:36:50;94082.13;;;30.63;32.02
55466;BME280;41329;41.594;23.810;2023-08-06T12:39:16;94080.28;;;30.71;31.00
55466;BME280;41329;41.594;23.810;2023-08-06T12:41:41;94067.59;;;30.67;30.60
55466;BME280;41329;41.594;23.810;2023-08-06T12:44:08;94059.94;;;30.51;31.08
55466;BME280;41329;41.594;23.810;2023-08-06T12:46:34;94080.31;;;30.31;31.80
55466;BME280;41329;41.594;23.810;2023-08-06T12:48:59;94074.28;;;30.40;31.71
55466;BME280;41329;41.594;23.810;2023-08-06T12:51:25;94068.22;;;30.54;31.49
55466;BME280;41329;41.594;23.810;2023-08-06T12:53:50;94040.66;;;30.57;30.90
55466;BME280;41329;41.594;23.810;2023-08-06T12:56:15;94047.28;;;30.76;31.13
55466;BME280;41329;41.594;23.810;2023-08-06T12:58:41;94033.34;;;30.67;32.22